createdAt,value
2023-03-27T00:00:16.628Z,85.72
2023-03-27T00:05:20.563Z,85.58
2023-03-27T00:10:23.405Z,86.09
2023-03-27T00:15:27.217Z,86.39
2023-03-27T00:20:30.058Z,85.86
2023-03-27T00:25:32.609Z,86.03
2023-03-27T00:30:36.950Z,86.54
2023-03-27T00:35:39.620Z,86.47
2023-03-27T00:40:44.035Z,86.51
2023-03-27T00:45:50.926Z,86.46
2023-03-27T00:50:54.549Z,86.68
2023-03-27T00:56:02.356Z,87.24
2023-03-27T01:01:08.551Z,87.22
2023-03-27T01:06:13.898Z,87.82
2023-03-27T01:11:23.600Z,88.09
2023-03-27T01:16:34.878Z,87.85
2023-03-27T01:21:55.381Z,88.52
2023-03-27T01:27:03.352Z,88.66
2023-03-27T01:32:30.534Z,88.65
2023-03-27T01:37:50.287Z,88.65
2023-03-27T01:43:02.161Z,89.20
2023-03-27T01:48:11.769Z,89.22
2023-03-27T01:53:18.937Z,89.58
2023-03-27T01:58:28.069Z,89.84
2023-03-27T02:03:35.699Z,90.06
2023-03-27T02:08:44.945Z,89.56
2023-03-27T02:13:53.124Z,89.02
2023-03-27T02:19:01.860Z,88.67
2023-03-27T02:24:05.979Z,88.46
2023-03-27T02:29:27.610Z,88.22
2023-03-27T02:34:46.310Z,88.65
2023-03-27T02:39:56.697Z,88.48
2023-03-27T02:45:10.177Z,88.31
2023-03-27T02:50:16.941Z,88.32
2023-03-27T02:55:23.955Z,88.29
2023-03-27T03:00:31.567Z,87.89
2023-03-27T03:05:37.221Z,87.78
2023-03-27T03:10:44.529Z,87.84
2023-03-27T03:15:50.470Z,87.64
2023-03-27T03:20:54.090Z,87.53
2023-03-27T03:25:57.495Z,87.72
2023-03-27T03:31:02.673Z,87.58
2023-03-27T03:36:06.491Z,87.59
2023-03-27T03:41:09.101Z,87.37
2023-03-27T03:46:12.960Z,87.40
2023-03-27T03:51:15.496Z,87.30
2023-03-27T03:56:18.021Z,87.16
2023-03-27T04:01:22.898Z,87.12
2023-03-27T04:06:25.856Z,87.04
2023-03-27T04:11:28.377Z,86.76
2023-03-27T04:16:32.366Z,86.82
2023-03-27T04:21:36.338Z,86.92
2023-03-27T04:26:39.149Z,86.90
2023-03-27T04:31:46.601Z,87.05
2023-03-27T04:36:50.165Z,87.19
2023-03-27T04:41:53.803Z,86.86
2023-03-27T04:46:58.032Z,87.55
2023-03-27T04:52:00.794Z,87.53
2023-03-27T04:57:03.789Z,87.14
2023-03-27T05:02:07.695Z,87.43
2023-03-27T05:07:12.131Z,87.65
2023-03-27T05:12:14.694Z,87.71
2023-03-27T05:17:18.545Z,88.24
2023-03-27T05:22:21.062Z,88.30
2023-03-27T05:27:24.017Z,88.46
2023-03-27T05:32:28.203Z,88.54
2023-03-27T05:37:30.951Z,88.85
2023-03-27T05:42:33.431Z,88.66
2023-03-27T05:47:44.890Z,88.71
2023-03-27T05:52:48.162Z,88.37
2023-03-27T05:57:50.645Z,88.61
2023-03-27T06:02:57.389Z,88.81
2023-03-27T06:08:00.776Z,88.71
2023-03-27T06:13:04.978Z,88.83
2023-03-27T06:18:09.427Z,88.04
2023-03-27T06:23:12.681Z,87.78
2023-03-27T06:28:15.192Z,87.40
2023-03-27T06:33:19.133Z,86.71
2023-03-27T06:38:21.913Z,85.44
2023-03-27T06:43:24.518Z,84.53
2023-03-27T06:48:28.712Z,83.71
2023-03-27T06:53:34.858Z,82.68
2023-03-27T06:58:40.005Z,82.13
2023-03-27T07:03:43.899Z,80.96
2023-03-27T07:08:47.734Z,79.87
2023-03-27T07:13:51.423Z,78.73
2023-03-27T07:18:55.683Z,79.05
2023-03-27T07:23:58.172Z,79.04
2023-03-27T07:29:03.037Z,78.88
2023-03-27T07:34:07.012Z,75.66
2023-03-27T07:39:09.830Z,76.06
2023-03-27T07:44:12.332Z,75.60
2023-03-27T07:49:16.146Z,75.73
2023-03-27T07:54:18.632Z,74.77
2023-03-27T07:59:21.352Z,73.59
2023-03-27T08:04:25.374Z,73.34
2023-03-27T08:09:28.069Z,73.50
2023-03-27T08:14:30.577Z,72.45
2023-03-27T08:19:35.045Z,70.00
2023-03-27T08:24:37.550Z,68.93
2023-03-27T08:29:40.164Z,69.80
2023-03-27T08:34:44.017Z,66.69
2023-03-27T08:39:47.004Z,66.56
2023-03-27T08:44:54.835Z,64.82
2023-03-27T08:50:04.881Z,64.96
2023-03-27T08:55:13.724Z,63.83
2023-03-27T09:00:22.888Z,64.27
2023-03-27T09:05:34.397Z,63.77
2023-03-27T09:10:41.592Z,64.89
2023-03-27T09:15:53.124Z,66.19
2023-03-27T09:21:03.445Z,66.99
2023-03-27T09:26:09.855Z,65.56
2023-03-27T09:31:26.409Z,64.80
2023-03-27T09:36:30.554Z,64.41
2023-03-27T09:41:38.823Z,63.73
2023-03-27T09:46:45.207Z,65.27
2023-03-27T09:51:51.223Z,65.75
2023-03-27T09:56:57.740Z,66.07
2023-03-27T10:02:09.092Z,65.19
2023-03-27T10:07:24.601Z,63.64
2023-03-27T10:12:27.784Z,63.46
2023-03-27T10:17:36.687Z,62.38
2023-03-27T10:22:42.830Z,64.42
2023-03-27T10:27:45.740Z,65.67
2023-03-27T10:32:48.797Z,65.40
2023-03-27T10:37:53.314Z,65.64
2023-03-27T10:42:57.082Z,67.30
2023-03-27T10:48:02.631Z,68.15
2023-03-27T10:53:16.741Z,66.04
2023-03-27T10:58:27.092Z,65.75
2023-03-27T11:03:35.465Z,67.07
2023-03-27T11:08:52.876Z,68.91
2023-03-27T11:14:02.204Z,68.76
2023-03-27T11:19:22.478Z,67.25
2023-03-27T11:24:34.843Z,67.27
2023-03-27T11:29:43.594Z,66.81
2023-03-27T11:34:52.990Z,66.40
2023-03-27T11:40:01.699Z,67.08
2023-03-27T11:45:07.321Z,66.30
2023-03-27T11:50:22.929Z,66.21
2023-03-27T11:55:33.225Z,66.72
2023-03-27T12:00:39.465Z,66.12
2023-03-27T12:05:55.150Z,66.43
2023-03-27T12:11:03.593Z,64.32
2023-03-27T12:16:22.415Z,64.37
2023-03-27T12:21:29.248Z,66.26
2023-03-27T12:26:53.669Z,66.03
2023-03-27T12:32:24.835Z,64.26
2023-03-27T12:37:31.751Z,64.33
2023-03-27T12:42:51.012Z,64.22
2023-03-27T12:48:17.655Z,64.38
2023-03-27T12:53:21.717Z,63.94
2023-03-27T12:58:35.182Z,64.39
2023-03-27T13:03:57.593Z,64.89
2023-03-27T13:09:36.940Z,64.76
2023-03-27T13:14:58.922Z,64.30
2023-03-27T13:20:11.953Z,64.14
2023-03-27T13:25:23.853Z,65.11
2023-03-27T13:30:47.515Z,66.29
2023-03-27T13:36:04.629Z,66.01
2023-03-27T13:41:44.739Z,65.87
2023-03-27T13:46:54.895Z,65.67
2023-03-27T13:52:28.002Z,65.79
2023-03-27T13:57:54.932Z,66.09
2023-03-27T14:03:18.726Z,65.66
2023-03-27T14:08:35.322Z,67.66
2023-03-27T14:13:48.929Z,67.25
2023-03-27T14:19:27.479Z,67.96
2023-03-27T14:24:37.178Z,65.09
2023-03-27T14:29:40.155Z,66.73
2023-03-27T14:34:55.091Z,67.71
2023-03-27T14:40:00.692Z,68.43
2023-03-27T14:45:17.897Z,69.12
2023-03-27T14:50:23.036Z,70.01
2023-03-27T14:55:29.930Z,74.78
2023-03-27T15:00:35.122Z,80.27
2023-03-27T15:05:57.123Z,82.96
2023-03-27T15:10:59.939Z,84.83
2023-03-27T15:16:04.197Z,85.31
2023-03-27T15:21:13.592Z,86.89
2023-03-27T15:26:24.174Z,87.33
2023-03-27T15:31:30.002Z,86.59
2023-03-27T15:36:36.025Z,86.18
2023-03-27T15:41:44.788Z,85.02
2023-03-27T15:46:51.071Z,84.56
2023-03-27T15:51:55.403Z,84.20
2023-03-27T15:57:10.751Z,82.39
2023-03-27T16:02:17.393Z,82.15
2023-03-27T16:07:24.248Z,84.94
2023-03-27T16:12:31.807Z,86.53
2023-03-27T16:17:40.329Z,87.43
2023-03-27T16:22:44.310Z,87.51
2023-03-27T16:27:48.994Z,87.94
2023-03-27T16:32:51.634Z,87.82
2023-03-27T16:37:56.443Z,87.89
2023-03-27T16:42:59.005Z,87.32
2023-03-27T16:48:01.711Z,87.86
2023-03-27T16:53:05.668Z,87.58
2023-03-27T16:58:08.167Z,87.89
2023-03-27T17:03:11.359Z,87.46
2023-03-27T17:08:16.795Z,87.89
2023-03-27T17:13:19.436Z,87.49
2023-03-27T17:18:21.970Z,87.93
2023-03-27T17:23:26.918Z,88.79
2023-03-27T17:28:29.483Z,88.46
2023-03-27T17:33:32.047Z,88.29
2023-03-27T17:38:36.674Z,88.52
2023-03-27T17:43:39.307Z,88.92
2023-03-27T17:48:42.829Z,89.10
2023-03-27T17:53:46.921Z,88.02
2023-03-27T17:58:50.098Z,89.15
2023-03-27T18:03:52.658Z,88.05
2023-03-27T18:08:56.664Z,88.14
2023-03-27T18:13:59.205Z,88.54
2023-03-27T18:19:01.713Z,91.36
2023-03-27T18:24:06.115Z,91.98
2023-03-27T18:29:08.729Z,92.87
2023-03-27T18:34:11.245Z,93.14
2023-03-27T18:39:15.337Z,92.69
2023-03-27T18:44:18.220Z,92.95
2023-03-27T18:49:24.835Z,93.20
2023-03-27T18:54:29.455Z,92.43
2023-03-27T18:59:31.962Z,93.24
2023-03-27T19:04:34.464Z,92.25
2023-03-27T19:09:41.653Z,91.11
2023-03-27T19:14:44.512Z,90.18
2023-03-27T19:19:47.038Z,90.29
2023-03-27T19:24:50.990Z,88.88
2023-03-27T19:29:54.130Z,89.62
2023-03-27T19:34:56.637Z,89.79
2023-03-27T19:40:00.828Z,90.68
2023-03-27T19:45:03.546Z,90.50
2023-03-27T19:50:08.735Z,91.49
2023-03-27T19:55:12.622Z,92.44
2023-03-27T20:00:16.170Z,92.59
2023-03-27T20:05:18.675Z,93.45
2023-03-27T20:10:22.996Z,93.18
2023-03-27T20:15:25.757Z,92.34
2023-03-27T20:20:29.292Z,92.65
2023-03-27T20:25:35.310Z,92.12
2023-03-27T20:30:39.868Z,91.62
2023-03-27T20:35:42.645Z,93.74
2023-03-27T20:40:53.248Z,95.21
2023-03-27T20:45:58.742Z,96.17
2023-03-27T20:51:06.538Z,95.96
2023-03-27T20:56:12.290Z,96.30
2023-03-27T21:01:19.213Z,96.18
2023-03-27T21:06:22.101Z,95.87
2023-03-27T21:11:26.167Z,95.94
2023-03-27T21:16:28.802Z,95.47
2023-03-27T21:21:32.087Z,95.26
2023-03-27T21:26:37.255Z,94.96
2023-03-27T21:31:40.082Z,94.81
2023-03-27T21:36:42.798Z,94.63
2023-03-27T21:41:46.677Z,94.56
2023-03-27T21:46:49.176Z,94.37
2023-03-27T21:51:51.675Z,94.24
2023-03-27T21:56:55.735Z,93.86
2023-03-27T22:01:58.273Z,93.49
2023-03-27T22:07:00.939Z,93.05
2023-03-27T22:12:06.014Z,92.50
2023-03-27T22:17:08.518Z,91.82
2023-03-27T22:22:11.036Z,91.88
2023-03-27T22:27:14.871Z,91.73
2023-03-27T22:32:17.372Z,91.69
2023-03-27T22:37:20.770Z,91.38
2023-03-27T22:42:24.575Z,91.59
2023-03-27T22:47:27.390Z,91.20
2023-03-27T22:52:29.942Z,91.46
2023-03-27T22:57:35.977Z,91.80
2023-03-27T23:02:38.569Z,92.66
2023-03-27T23:07:41.125Z,94.93
2023-03-27T23:12:44.989Z,95.22
2023-03-27T23:17:47.510Z,95.03
2023-03-27T23:22:50.274Z,94.15
2023-03-27T23:27:54.124Z,93.21
2023-03-27T23:32:56.664Z,93.18
2023-03-27T23:37:59.192Z,93.17
2023-03-27T23:43:03.014Z,92.75
2023-03-27T23:48:05.737Z,92.49
2023-03-27T23:53:08.406Z,92.36
2023-03-27T23:58:12.254Z,92.43
